Time;durP1;ratioP1;P1;durP2;ratioP2;P2;SDS_P1;SDS_P2;PMS_P1;PMS_P2;Temp;Humidity;BMP_temperature;BMP_pressure;BME280_temperature;BME280_humidity;BME280_pressure;Samples;Min_cycle;Max_cycle;Signal;HPM_P1;HPM_P2
2021/07/20 00:00:07;;;;;;;7.57;6.60;;;;;;;;;;5034011;28;20178;-83
2021/07/20 00:02:39;;;;;;;7.65;6.30;;;;;;;;;;5034747;28;20920;-83
2021/07/20 00:05:05;;;;;;;6.82;5.85;;;;;;;;;;5038678;28;20189;-82
2021/07/20 00:07:32;;;;;;;6.85;6.15;;;;;;;;;;5044828;28;20240;-83
2021/07/20 00:09:58;;;;;;;9.03;7.83;;;;;;;;;;5029541;28;20201;-83
2021/07/20 00:12:24;;;;;;;9.53;6.07;;;;;;;;;;5047024;28;20435;-82
2021/07/20 00:14:51;;;;;;;6.63;6.00;;;;;;;;;;5034324;28;20449;-83
2021/07/20 00:17:21;;;;;;;8.77;7.90;;;;;;;;;;5039178;28;20514;-83
2021/07/20 00:19:48;;;;;;;7.10;6.43;;;;;;;;;;5044639;28;20439;-83
2021/07/20 00:22:14;;;;;;;8.27;6.95;;;;;;;;;;5046319;28;20224;-83
2021/07/20 00:24:39;;;;;;;6.33;5.73;;;;;;;;;;5027996;28;20184;-83
2021/07/20 00:27:06;;;;;;;7.37;5.83;;;;;;;;;;5049364;28;20428;-83
2021/07/20 00:29:32;;;;;;;8.20;7.10;;;;;;;;;;5040002;28;20450;-83
2021/07/20 00:31:58;;;;;;;7.00;5.97;;;;;;;;;;5041631;28;20196;-83
2021/07/20 00:34:24;;;;;;;7.80;7.00;;;;;;;;;;5029714;28;20207;-83
2021/07/20 00:36:50;;;;;;;6.77;6.17;;;;;;;;;;5027859;28;20452;-83
2021/07/20 00:39:16;;;;;;;7.10;6.40;;;;;;;;;;5040205;28;20423;-84
2021/07/20 00:41:42;;;;;;;7.97;6.17;;;;;;;;;;5036222;28;20542;-83
2021/07/20 00:44:08;;;;;;;7.55;6.75;;;;;;;;;;5035774;28;20444;-83
2021/07/20 00:46:34;;;;;;;7.95;6.10;;;;;;;;;;5044562;28;20185;-83
2021/07/20 00:49:00;;;;;;;6.70;6.05;;;;;;;;;;5029873;28;20182;-82
2021/07/20 00:51:26;;;;;;;7.80;6.90;;;;;;;;;;5045629;28;20184;-83
2021/07/20 00:53:52;;;;;;;11.85;7.40;;;;;;;;;;5044015;28;20923;-83
2021/07/20 00:56:18;;;;;;;7.07;6.38;;;;;;;;;;5045507;28;20242;-83
2021/07/20 00:58:46;;;;;;;7.55;6.78;;;;;;;;;;5045305;28;20189;-83
2021/07/20 01:01:12;;;;;;;7.85;6.20;;;;;;;;;;5043828;28;20181;-83
2021/07/20 01:03:38;;;;;;;7.20;6.55;;;;;;;;;;5027404;28;20231;-82
2021/07/20 01:06:05;;;;;;;7.55;6.95;;;;;;;;;;5059190;28;20242;-82
2021/07/20 01:08:31;;;;;;;8.43;6.90;;;;;;;;;;5043994;28;20191;-83
2021/07/20 01:10:59;;;;;;;7.63;6.20;;;;;;;;;;5045197;28;20268;-83
2021/07/20 01:13:25;;;;;;;7.03;6.43;;;;;;;;;;5045997;28;20179;-83
2021/07/20 01:15:52;;;;;;;7.25;6.53;;;;;;;;;;5043024;28;20188;-83
2021/07/20 01:18:18;;;;;;;7.00;6.32;;;;;;;;;;5029912;28;20202;-83
2021/07/20 01:20:44;;;;;;;7.22;6.45;;;;;;;;;;5041816;28;20192;-83
2021/07/20 01:23:22;;;;;;;8.23;7.03;;;;;;;;;;5040291;28;20206;-82
2021/07/20 01:25:49;;;;;;;8.02;6.35;;;;;;;;;;5032237;28;21007;-83
2021/07/20 01:28:18;;;;;;;6.90;6.30;;;;;;;;;;5031583;28;20266;-83
2021/07/20 01:30:46;;;;;;;6.88;5.97;;;;;;;;;;5026634;28;20248;-83
2021/07/20 01:33:13;;;;;;;8.02;7.22;;;;;;;;;;5045667;28;20207;-83
2021/07/20 01:35:39;;;;;;;8.05;6.80;;;;;;;;;;5035164;28;20201;-83
2021/07/20 01:38:08;;;;;;;6.78;6.18;;;;;;;;;;5039044;28;20207;-83
2021/07/20 01:40:35;;;;;;;7.40;6.32;;;;;;;;;;5046007;28;20175;-83
2021/07/20 01:43:02;;;;;;;7.65;6.70;;;;;;;;;;5043159;28;20214;-83
2021/07/20 01:45:28;;;;;;;7.22;6.50;;;;;;;;;;5043070;28;20179;-83
2021/07/20 01:47:54;;;;;;;10.43;6.70;;;;;;;;;;5042149;28;20193;-83
2021/07/20 01:50:21;;;;;;;6.60;6.10;;;;;;;;;;5042969;28;20207;-83
2021/07/20 01:52:47;;;;;;;6.82;5.93;;;;;;;;;;5042372;28;20566;-82
2021/07/20 01:55:14;;;;;;;9.75;6.25;;;;;;;;;;5029881;28;20254;-84
2021/07/20 01:57:40;;;;;;;8.70;7.40;;;;;;;;;;5041446;28;20206;-83
2021/07/20 02:00:08;;;;;;;8.38;6.07;;;;;;;;;;5043807;28;20240;-83
2021/07/20 02:02:40;;;;;;;6.78;5.90;;;;;;;;;;5037706;28;20731;-83
2021/07/20 02:10:37;;;;;;;7.78;7.07;;;;;;;;;;5032485;28;20283;-83
2021/07/20 02:13:05;;;;;;;7.35;6.65;;;;;;;;;;5028308;28;20198;-83
2021/07/20 02:15:31;;;;;;;8.77;7.20;;;;;;;;;;5042834;28;20631;-83
2021/07/20 02:17:58;;;;;;;9.95;6.95;;;;;;;;;;5041796;28;20239;-83
2021/07/20 02:20:27;;;;;;;8.65;6.88;;;;;;;;;;5038547;28;20182;-83
2021/07/20 02:22:54;;;;;;;8.93;6.95;;;;;;;;;;5034237;28;20182;-82
2021/07/20 02:25:20;;;;;;;7.88;7.18;;;;;;;;;;5043359;28;20184;-83
2021/07/20 02:27:48;;;;;;;6.35;5.72;;;;;;;;;;5027002;28;20215;-83
2021/07/20 02:30:15;;;;;;;10.55;7.50;;;;;;;;;;5045323;28;20186;-83
2021/07/20 02:32:43;;;;;;;7.10;6.50;;;;;;;;;;5043304;28;20258;-83
2021/07/20 02:35:09;;;;;;;8.18;7.35;;;;;;;;;;5042739;28;20266;-83
2021/07/20 02:37:38;;;;;;;7.57;6.80;;;;;;;;;;5043768;28;20392;-83
2021/07/20 02:40:05;;;;;;;7.35;6.57;;;;;;;;;;5026587;28;20218;-83
2021/07/20 02:42:32;;;;;;;15.63;6.63;;;;;;;;;;5037305;28;20421;-83
2021/07/20 02:44:59;;;;;;;7.68;6.70;;;;;;;;;;5042245;28;20194;-83
2021/07/20 02:47:25;;;;;;;7.82;7.03;;;;;;;;;;5045324;28;20190;-82
2021/07/20 02:49:52;;;;;;;6.85;6.25;;;;;;;;;;5042217;28;20191;-84
2021/07/20 02:52:18;;;;;;;8.23;6.60;;;;;;;;;;5041475;28;20194;-83
2021/07/20 02:54:45;;;;;;;7.82;6.80;;;;;;;;;;5041967;28;20179;-83
2021/07/20 02:57:11;;;;;;;7.15;6.45;;;;;;;;;;5044588;28;20241;-83
2021/07/20 02:59:39;;;;;;;9.00;7.85;;;;;;;;;;5044655;28;20186;-83
2021/07/20 03:02:06;;;;;;;11.50;6.97;;;;;;;;;;5043525;28;20191;-83
2021/07/20 03:04:33;;;;;;;8.70;7.00;;;;;;;;;;5042230;28;20182;-83
2021/07/20 03:07:00;;;;;;;7.35;6.40;;;;;;;;;;5027660;28;20201;-83
2021/07/20 03:09:26;;;;;;;8.45;6.80;;;;;;;;;;5043553;28;20249;-83
2021/07/20 03:11:57;;;;;;;8.55;6.30;;;;;;;;;;5032933;28;20259;-83
2021/07/20 03:14:25;;;;;;;8.00;7.25;;;;;;;;;;5037449;28;20208;-83
2021/07/20 03:16:51;;;;;;;8.00;7.20;;;;;;;;;;5041987;28;20250;-83
2021/07/20 03:19:18;;;;;;;8.98;7.32;;;;;;;;;;5043682;28;20211;-83
2021/07/20 03:21:45;;;;;;;8.23;5.90;;;;;;;;;;5040781;28;20258;-83
2021/07/20 03:24:12;;;;;;;10.00;6.95;;;;;;;;;;5045430;28;20194;-83
2021/07/20 03:26:38;;;;;;;7.50;6.80;;;;;;;;;;5037470;28;20190;-83
2021/07/20 03:29:05;;;;;;;7.00;6.30;;;;;;;;;;5036769;28;20196;-83
2021/07/20 03:31:31;;;;;;;7.30;6.25;;;;;;;;;;5034894;28;20448;-84
2021/07/20 03:33:58;;;;;;;8.15;7.35;;;;;;;;;;5029627;28;20187;-83
2021/07/20 03:36:26;;;;;;;7.18;6.47;;;;;;;;;;5046471;28;20179;-84
2021/07/20 03:38:52;;;;;;;8.95;7.25;;;;;;;;;;5045500;28;20186;-84
2021/07/20 03:41:18;;;;;;;7.78;6.97;;;;;;;;;;5047478;28;20195;-83
2021/07/20 03:43:44;;;;;;;7.80;6.68;;;;;;;;;;5045601;28;20183;-83
2021/07/20 03:46:10;;;;;;;10.30;6.78;;;;;;;;;;5047390;28;20189;-82
2021/07/20 03:48:37;;;;;;;7.40;6.70;;;;;;;;;;5045292;28;20185;-83
2021/07/20 03:51:03;;;;;;;7.20;6.50;;;;;;;;;;5035247;28;20182;-83
2021/07/20 03:53:32;;;;;;;8.13;7.32;;;;;;;;;;5043884;28;20190;-84
2021/07/20 03:56:02;;;;;;;7.68;6.90;;;;;;;;;;5046053;28;20196;-83
2021/07/20 03:58:29;;;;;;;10.63;7.57;;;;;;;;;;5046730;28;20202;-83
2021/07/20 04:01:00;;;;;;;9.48;6.82;;;;;;;;;;5030041;28;20198;-83
2021/07/20 04:03:27;;;;;;;7.28;6.57;;;;;;;;;;5033044;28;20174;-83
2021/07/20 04:05:55;;;;;;;10.30;7.47;;;;;;;;;;5045845;28;20200;-83
2021/07/20 04:08:21;;;;;;;8.88;7.10;;;;;;;;;;5044275;28;20205;-83
2021/07/20 04:10:49;;;;;;;7.43;6.60;;;;;;;;;;5043810;28;20203;-82
2021/07/20 04:13:15;;;;;;;9.43;7.70;;;;;;;;;;5030576;28;20237;-83
2021/07/20 04:16:01;;;;;;;7.90;7.10;;;;;;;;;;5027805;28;20186;-83
2021/07/20 04:18:29;;;;;;;7.43;6.72;;;;;;;;;;5062050;28;20242;-83
2021/07/20 04:20:56;;;;;;;7.78;6.93;;;;;;;;;;5043110;28;20184;-82
2021/07/20 04:23:23;;;;;;;8.25;7.45;;;;;;;;;;5044791;28;20193;-83
2021/07/20 04:25:50;;;;;;;7.68;6.97;;;;;;;;;;5044639;28;20177;-83
2021/07/20 04:28:17;;;;;;;7.07;6.00;;;;;;;;;;5044795;28;20255;-83
2021/07/20 04:30:45;;;;;;;7.63;6.93;;;;;;;;;;5028707;28;20416;-82
2021/07/20 04:33:13;;;;;;;11.18;7.53;;;;;;;;;;5047238;28;20178;-84
2021/07/20 04:35:40;;;;;;;8.13;7.07;;;;;;;;;;5037532;28;20183;-83
2021/07/20 04:38:06;;;;;;;7.95;6.32;;;;;;;;;;5037204;28;20209;-83
2021/07/20 04:40:32;;;;;;;8.48;7.28;;;;;;;;;;5047009;28;20242;-83
2021/07/20 04:42:58;;;;;;;8.57;7.70;;;;;;;;;;5028167;28;20182;-83
2021/07/20 04:45:26;;;;;;;6.88;6.28;;;;;;;;;;5025817;28;20177;-82
2021/07/20 04:47:52;;;;;;;8.15;6.80;;;;;;;;;;5032594;28;20237;-83
2021/07/20 04:50:18;;;;;;;6.93;6.00;;;;;;;;;;5040319;28;20611;-83
2021/07/20 04:52:44;;;;;;;8.52;7.72;;;;;;;;;;5045209;28;20467;-83
2021/07/20 04:55:11;;;;;;;7.53;6.82;;;;;;;;;;5044700;28;20203;-82
2021/07/20 04:57:37;;;;;;;7.40;6.70;;;;;;;;;;5039777;28;20252;-83
2021/07/20 05:00:07;;;;;;;9.68;7.60;;;;;;;;;;5045624;28;20194;-83
2021/07/20 05:02:36;;;;;;;7.40;6.70;;;;;;;;;;5047030;28;20227;-82
2021/07/20 05:05:03;;;;;;;8.27;7.47;;;;;;;;;;5043749;28;20183;-83
2021/07/20 05:07:31;;;;;;;7.97;7.28;;;;;;;;;;5030251;28;20184;-83
2021/07/20 05:09:57;;;;;;;7.68;6.13;;;;;;;;;;5027912;28;20183;-83
2021/07/20 05:12:23;;;;;;;7.68;6.97;;;;;;;;;;5030805;28;20179;-83
2021/07/20 05:14:50;;;;;;;7.90;7.07;;;;;;;;;;5033214;28;20190;-83
2021/07/20 05:17:16;;;;;;;10.40;6.88;;;;;;;;;;5038249;28;20223;-83
2021/07/20 05:19:42;;;;;;;7.53;6.78;;;;;;;;;;5046079;28;20246;-83
2021/07/20 05:22:09;;;;;;;8.50;7.70;;;;;;;;;;5046123;28;20179;-83
2021/07/20 05:24:35;;;;;;;7.97;7.13;;;;;;;;;;5040481;28;20173;-82
2021/07/20 05:27:02;;;;;;;8.23;7.38;;;;;;;;;;5043612;28;20319;-83
2021/07/20 05:29:28;;;;;;;9.18;7.65;;;;;;;;;;5038094;28;20638;-83
2021/07/20 05:31:55;;;;;;;8.57;7.45;;;;;;;;;;5032529;28;20195;-83
2021/07/20 05:34:22;;;;;;;8.82;7.75;;;;;;;;;;5028204;28;20375;-83
2021/07/20 05:36:48;;;;;;;8.00;7.20;;;;;;;;;;5039832;28;20610;-83
2021/07/20 05:39:14;;;;;;;7.97;7.10;;;;;;;;;;5040999;28;20535;-82
2021/07/20 05:41:44;;;;;;;8.73;7.28;;;;;;;;;;5037932;28;20204;-83
2021/07/20 05:44:14;;;;;;;8.13;7.22;;;;;;;;;;5033891;28;20188;-82
2021/07/20 05:46:41;;;;;;;7.28;6.57;;;;;;;;;;5033489;28;20287;-83
2021/07/20 05:49:07;;;;;;;14.50;7.50;;;;;;;;;;5029808;28;20262;-83
2021/07/20 05:51:33;;;;;;;7.97;7.18;;;;;;;;;;5026908;28;20225;-83
2021/07/20 05:54:00;;;;;;;8.90;7.20;;;;;;;;;;5045587;28;20695;-83
2021/07/20 05:56:30;;;;;;;8.05;7.32;;;;;;;;;;5044635;28;20196;-83
2021/07/20 05:58:56;;;;;;;7.93;7.13;;;;;;;;;;5042138;28;20173;-83
2021/07/20 06:01:22;;;;;;;9.40;7.85;;;;;;;;;;5030911;28;20188;-83
2021/07/20 06:03:51;;;;;;;9.38;7.82;;;;;;;;;;5042265;28;20195;-82
2021/07/20 06:06:18;;;;;;;12.93;7.78;;;;;;;;;;5031824;28;20596;-82
2021/07/20 06:08:44;;;;;;;9.20;7.13;;;;;;;;;;5043214;28;20192;-83
2021/07/20 06:11:10;;;;;;;7.78;7.00;;;;;;;;;;5044420;28;20192;-83
2021/07/20 06:13:38;;;;;;;8.40;7.60;;;;;;;;;;5045405;28;20185;-83
2021/07/20 06:16:07;;;;;;;9.82;6.65;;;;;;;;;;5029145;28;20195;-82
2021/07/20 06:18:38;;;;;;;9.63;7.18;;;;;;;;;;5043860;28;20204;-83
2021/07/20 06:21:09;;;;;;;8.73;7.25;;;;;;;;;;5033262;28;20194;-82
2021/07/20 06:23:38;;;;;;;8.90;7.45;;;;;;;;;;5039067;28;20189;-82
2021/07/20 06:26:04;;;;;;;9.32;7.88;;;;;;;;;;5045520;28;20648;-82
2021/07/20 06:28:30;;;;;;;8.80;7.30;;;;;;;;;;5043811;28;20199;-82
2021/07/20 06:30:57;;;;;;;10.37;8.43;;;;;;;;;;5025858;28;20399;-82
2021/07/20 06:33:23;;;;;;;10.65;8.57;;;;;;;;;;5044422;28;20565;-82
2021/07/20 06:35:50;;;;;;;13.50;7.95;;;;;;;;;;5044125;28;20200;-82
2021/07/20 06:38:22;;;;;;;9.33;8.33;;;;;;;;;;5045144;28;20209;-82
2021/07/20 06:40:52;;;;;;;12.70;8.87;;;;;;;;;;5042669;28;20439;-82
2021/07/20 06:43:19;;;;;;;11.57;9.53;;;;;;;;;;5045225;28;20440;-82
2021/07/20 06:45:46;;;;;;;10.60;8.20;;;;;;;;;;5041593;28;20842;-82
2021/07/20 06:48:13;;;;;;;10.50;8.03;;;;;;;;;;5040430;28;20466;-82
2021/07/20 06:50:39;;;;;;;14.07;9.70;;;;;;;;;;5040375;28;20436;-82
2021/07/20 06:53:05;;;;;;;9.83;8.40;;;;;;;;;;5044262;28;20440;-82
2021/07/20 06:55:32;;;;;;;11.13;8.90;;;;;;;;;;5045429;28;20459;-82
2021/07/20 06:57:58;;;;;;;9.03;7.17;;;;;;;;;;5042145;28;20445;-82
2021/07/20 07:00:25;;;;;;;15.37;9.63;;;;;;;;;;5046477;28;20951;-82
2021/07/20 07:02:58;;;;;;;11.10;9.40;;;;;;;;;;5044728;28;20428;-82
2021/07/20 07:05:28;;;;;;;12.70;9.63;;;;;;;;;;5048795;28;20530;-82
2021/07/20 07:07:55;;;;;;;12.37;9.43;;;;;;;;;;5046104;28;20446;-82
2021/07/20 07:10:21;;;;;;;14.60;9.10;;;;;;;;;;5044539;28;20435;-83
2021/07/20 07:12:48;;;;;;;10.93;9.83;;;;;;;;;;5030810;28;20421;-82
2021/07/20 07:15:14;;;;;;;12.63;10.00;;;;;;;;;;5047360;28;20451;-81
2021/07/20 07:17:41;;;;;;;12.03;10.20;;;;;;;;;;5045337;28;20472;-81
2021/07/20 07:20:07;;;;;;;12.87;10.00;;;;;;;;;;5044076;28;20415;-82
2021/07/20 07:22:35;;;;;;;18.00;10.40;;;;;;;;;;5036627;28;20429;-81
2021/07/20 07:25:01;;;;;;;13.20;10.90;;;;;;;;;;5046289;28;20443;-82
2021/07/20 07:27:28;;;;;;;12.60;10.30;;;;;;;;;;5048293;28;20418;-82
2021/07/20 07:29:54;;;;;;;12.50;10.60;;;;;;;;;;5043042;28;20423;-82
2021/07/20 07:32:21;;;;;;;14.67;11.77;;;;;;;;;;5040691;28;20424;-81
2021/07/20 07:34:47;;;;;;;14.43;11.17;;;;;;;;;;5035735;28;20506;-82
2021/07/20 07:37:20;;;;;;;18.60;11.80;;;;;;;;;;5033076;28;20464;-81
2021/07/20 07:39:47;;;;;;;14.53;12.43;;;;;;;;;;5044153;28;20413;-81
2021/07/20 07:42:14;;;;;;;15.20;13.53;;;;;;;;;;5033169;28;20408;-81
2021/07/20 07:44:41;;;;;;;15.77;13.07;;;;;;;;;;5033799;28;20433;-81
2021/07/20 07:47:07;;;;;;;18.10;13.60;;;;;;;;;;5039843;28;20468;-81
2021/07/20 07:49:34;;;;;;;15.90;14.17;;;;;;;;;;5048414;28;20510;-81
2021/07/20 07:52:00;;;;;;;20.20;13.57;;;;;;;;;;5046813;28;20477;-81
2021/07/20 07:54:27;;;;;;;15.53;11.87;;;;;;;;;;5041778;28;20419;-82
2021/07/20 07:56:53;;;;;;;14.40;12.63;;;;;;;;;;5049254;28;20443;-81
2021/07/20 07:59:23;;;;;;;17.00;12.17;;;;;;;;;;5040061;28;20450;-81
2021/07/20 08:01:50;;;;;;;16.90;14.13;;;;;;;;;;5034728;28;20418;-81
2021/07/20 08:04:20;;;;;;;19.30;13.50;;;;;;;;;;5031446;28;20427;-81
2021/07/20 08:06:47;;;;;;;14.70;11.80;;;;;;;;;;5044487;28;20433;-82
2021/07/20 08:09:14;;;;;;;16.30;11.57;;;;;;;;;;5034483;28;20452;-82
2021/07/20 08:11:42;;;;;;;15.43;11.77;;;;;;;;;;5042551;28;20424;-82
2021/07/20 08:14:08;;;;;;;15.97;11.17;;;;;;;;;;5041265;28;20415;-82
2021/07/20 08:16:38;;;;;;;14.87;11.07;;;;;;;;;;5033523;28;20475;-81
2021/07/20 08:19:05;;;;;;;14.03;12.57;;;;;;;;;;5044754;28;20461;-81
2021/07/20 08:21:31;;;;;;;17.17;11.90;;;;;;;;;;5030934;28;20924;-81
2021/07/20 08:23:57;;;;;;;14.87;11.97;;;;;;;;;;5046411;28;20445;-81
2021/07/20 08:26:24;;;;;;;13.60;10.47;;;;;;;;;;5039065;28;20523;-81
2021/07/20 08:28:55;;;;;;;14.23;11.20;;;;;;;;;;5034959;28;20442;-81
2021/07/20 08:31:22;;;;;;;14.70;11.17;;;;;;;;;;5031382;28;20445;-81
2021/07/20 08:33:51;;;;;;;14.27;10.90;;;;;;;;;;5043125;28;20410;-82
2021/07/20 08:36:18;;;;;;;14.77;11.57;;;;;;;;;;5031598;28;20406;-81
2021/07/20 08:38:49;;;;;;;14.63;11.70;;;;;;;;;;5034623;28;20471;-81
2021/07/20 08:41:27;;;;;;;12.00;9.90;;;;;;;;;;5040466;28;20436;-81
2021/07/20 08:44:16;;;;;;;14.47;11.07;;;;;;;;;;5045486;28;20509;-81
2021/07/20 08:46:58;;;;;;;13.00;10.70;;;;;;;;;;5045793;28;20460;-81
2021/07/20 08:49:33;;;;;;;14.30;10.80;;;;;;;;;;5045874;28;20467;-82
2021/07/20 08:52:12;;;;;;;12.33;10.20;;;;;;;;;;5046096;28;21530;-82
2021/07/20 08:54:42;;;;;;;17.10;10.63;;;;;;;;;;5040895;28;20417;-81
2021/07/20 08:57:12;;;;;;;14.03;11.80;;;;;;;;;;5032127;28;20487;-81
2021/07/20 08:59:39;;;;;;;13.17;11.00;;;;;;;;;;5035699;28;20513;-81
2021/07/20 09:02:21;;;;;;;13.27;10.63;;;;;;;;;;5040949;28;20417;-81
2021/07/20 09:04:52;;;;;;;13.00;9.83;;;;;;;;;;5030385;28;20475;-82
2021/07/20 09:07:22;;;;;;;14.93;11.77;;;;;;;;;;5046160;28;20434;-81
2021/07/20 09:09:49;;;;;;;12.37;10.47;;;;;;;;;;5043533;28;20403;-81
2021/07/20 09:12:25;;;;;;;12.93;9.73;;;;;;;;;;5040712;28;20389;-82
2021/07/20 09:14:54;;;;;;;12.40;9.80;;;;;;;;;;5044023;28;20410;-81
2021/07/20 09:17:29;;;;;;;19.13;10.27;;;;;;;;;;5046331;28;20796;-81
2021/07/20 09:19:58;;;;;;;12.43;9.90;;;;;;;;;;5041120;28;20421;-81
2021/07/20 09:22:31;;;;;;;13.23;10.20;;;;;;;;;;5028098;28;20440;-81
2021/07/20 09:24:59;;;;;;;10.70;9.50;;;;;;;;;;5027931;28;20399;-81
2021/07/20 09:27:25;;;;;;;12.60;9.90;;;;;;;;;;5029202;28;20429;-81
2021/07/20 09:29:53;;;;;;;13.23;9.90;;;;;;;;;;5043515;28;20535;-81
2021/07/20 09:32:22;;;;;;;9.53;8.63;;;;;;;;;;5038295;28;20421;-80
2021/07/20 09:34:51;;;;;;;13.10;10.80;;;;;;;;;;5032506;28;20507;-81
2021/07/20 09:37:28;;;;;;;12.50;9.70;;;;;;;;;;5030439;28;20478;-81
2021/07/20 09:40:13;;;;;;;11.77;9.87;;;;;;;;;;5042972;28;20831;-81
2021/07/20 09:43:05;;;;;;;10.30;9.27;;;;;;;;;;5039717;28;20413;-81
2021/07/20 09:45:33;;;;;;;11.47;9.07;;;;;;;;;;5026584;28;20467;-81
2021/07/20 09:48:04;;;;;;;10.23;9.23;;;;;;;;;;5044026;28;20456;-82
2021/07/20 09:50:34;;;;;;;12.60;9.70;;;;;;;;;;5038010;28;20552;-81
2021/07/20 09:53:06;;;;;;;11.53;9.47;;;;;;;;;;5037134;28;20422;-81
2021/07/20 09:55:45;;;;;;;13.30;9.53;;;;;;;;;;5045622;28;20431;-81
2021/07/20 09:58:32;;;;;;;13.50;10.00;;;;;;;;;;5043691;28;20495;-82
2021/07/20 10:01:17;;;;;;;10.90;9.03;;;;;;;;;;5026592;28;20520;-81
2021/07/20 10:03:49;;;;;;;13.10;10.13;;;;;;;;;;5055283;28;20406;-81
2021/07/20 10:06:18;;;;;;;10.33;9.23;;;;;;;;;;5061450;28;20435;-82
2021/07/20 10:08:58;;;;;;;12.60;9.70;;;;;;;;;;5043160;28;20412;-81
2021/07/20 10:11:28;;;;;;;13.07;10.70;;;;;;;;;;5037512;28;20452;-81
2021/07/20 10:14:00;;;;;;;13.67;11.17;;;;;;;;;;5031103;28;20889;-81
2021/07/20 10:16:40;;;;;;;13.07;11.10;;;;;;;;;;5030722;28;20474;-80
2021/07/20 10:19:07;;;;;;;13.30;10.40;;;;;;;;;;5043692;28;20426;-80
2021/07/20 10:21:35;;;;;;;12.10;10.60;;;;;;;;;;5027316;28;20900;-81
2021/07/20 10:24:02;;;;;;;12.10;10.47;;;;;;;;;;5044636;28;20469;-81
2021/07/20 10:26:30;;;;;;;15.47;12.20;;;;;;;;;;5036591;28;20439;-83
2021/07/20 10:29:08;;;;;;;17.27;11.20;;;;;;;;;;5031303;28;20732;-81
2021/07/20 10:31:39;;;;;;;13.33;10.90;;;;;;;;;;5030002;28;20484;-81
2021/07/20 10:34:12;;;;;;;14.40;11.47;;;;;;;;;;5031159;28;20450;-81
2021/07/20 10:36:55;;;;;;;15.10;12.13;;;;;;;;;;5055988;28;20459;-81
2021/07/20 10:39:44;;;;;;;14.40;12.43;;;;;;;;;;5034974;28;20427;-81
2021/07/20 10:42:13;;;;;;;12.77;11.27;;;;;;;;;;5033322;28;20429;-82
2021/07/20 10:44:45;;;;;;;15.10;11.90;;;;;;;;;;5042910;28;20442;-82
2021/07/20 10:47:13;;;;;;;10.63;9.63;;;;;;;;;;5044030;28;20490;-81
2021/07/20 10:49:46;;;;;;;14.40;11.40;;;;;;;;;;5046746;28;20432;-81
2021/07/20 10:52:25;;;;;;;14.00;11.63;;;;;;;;;;5048395;28;20459;-81
2021/07/20 10:55:10;;;;;;;11.97;10.50;;;;;;;;;;5047280;28;20908;-82
2021/07/20 10:57:46;;;;;;;11.90;10.30;;;;;;;;;;5032014;28;20630;-82
2021/07/20 11:00:15;;;;;;;12.33;10.30;;;;;;;;;;5035866;28;20425;-81
2021/07/20 11:03:00;;;;;;;12.07;10.83;;;;;;;;;;5036400;28;20425;-82
2021/07/20 11:05:27;;;;;;;13.67;10.50;;;;;;;;;;5042793;28;20447;-82
2021/07/20 11:08:01;;;;;;;12.00;10.90;;;;;;;;;;5044507;28;20446;-82
2021/07/20 11:10:38;;;;;;;10.63;9.57;;;;;;;;;;5034560;28;20930;-82
2021/07/20 11:13:06;;;;;;;11.90;10.10;;;;;;;;;;5048045;28;20457;-82
2021/07/20 11:15:32;;;;;;;11.27;10.07;;;;;;;;;;5030822;28;20456;-81
2021/07/20 11:18:01;;;;;;;11.93;10.80;;;;;;;;;;5045914;28;20468;-82
2021/07/20 11:20:27;;;;;;;12.77;11.40;;;;;;;;;;5047816;28;20519;-82
2021/07/20 11:22:54;;;;;;;11.80;10.60;;;;;;;;;;5048570;28;20441;-81
2021/07/20 11:25:20;;;;;;;11.50;9.83;;;;;;;;;;5046350;28;20430;-81
2021/07/20 11:27:48;;;;;;;11.40;10.07;;;;;;;;;;5028724;28;20429;-82
2021/07/20 11:30:18;;;;;;;11.20;10.10;;;;;;;;;;5063209;28;20777;-81
2021/07/20 11:32:48;;;;;;;12.27;10.43;;;;;;;;;;5049517;28;20506;-82
2021/07/20 11:35:16;;;;;;;10.93;9.57;;;;;;;;;;5047679;28;20965;-81
2021/07/20 11:37:44;;;;;;;13.27;10.43;;;;;;;;;;5045050;28;20462;-82
2021/07/20 11:40:15;;;;;;;10.07;8.93;;;;;;;;;;5048145;28;20446;-81
2021/07/20 11:42:45;;;;;;;8.83;7.93;;;;;;;;;;5042245;28;20430;-81
2021/07/20 11:45:13;;;;;;;9.47;8.57;;;;;;;;;;5033741;28;20497;-82
2021/07/20 11:47:44;;;;;;;10.80;9.47;;;;;;;;;;5036220;28;20514;-81
2021/07/20 11:50:12;;;;;;;9.90;8.37;;;;;;;;;;5040929;28;20442;-81
2021/07/20 11:52:47;;;;;;;9.77;8.77;;;;;;;;;;5046732;28;20450;-81
2021/07/20 11:55:13;;;;;;;10.90;9.43;;;;;;;;;;5046244;28;20950;-81
2021/07/20 11:57:42;;;;;;;10.97;9.30;;;;;;;;;;5029029;28;20456;-81
2021/07/20 12:00:44;;;;;;;10.37;9.10;;;;;;;;;;5035283;28;20428;-81
2021/07/20 12:03:13;;;;;;;13.27;9.10;;;;;;;;;;5024627;28;20456;-81
2021/07/20 12:05:48;;;;;;;10.60;8.60;;;;;;;;;;5023572;28;20439;-81
2021/07/20 12:08:31;;;;;;;9.60;8.50;;;;;;;;;;5023219;28;20862;-81
2021/07/20 12:11:02;;;;;;;9.33;8.20;;;;;;;;;;5025325;28;20437;-81
2021/07/20 12:13:28;;;;;;;12.13;8.10;;;;;;;;;;5040487;28;20536;-81
2021/07/20 12:15:56;;;;;;;19.07;8.60;;;;;;;;;;5040436;28;20438;-81
2021/07/20 12:18:22;;;;;;;10.73;8.50;;;;;;;;;;5021466;28;20461;-81
2021/07/20 12:20:48;;;;;;;8.93;7.80;;;;;;;;;;5025951;28;20441;-82
2021/07/20 12:23:14;;;;;;;11.30;7.77;;;;;;;;;;5023166;28;20506;-82
2021/07/20 12:25:40;;;;;;;9.37;7.70;;;;;;;;;;5040088;28;20497;-82
2021/07/20 12:28:08;;;;;;;12.40;8.20;;;;;;;;;;5008216;28;20471;-82
2021/07/20 12:30:34;;;;;;;10.67;9.40;;;;;;;;;;5022959;28;20756;-81
2021/07/20 12:33:02;;;;;;;11.50;8.50;;;;;;;;;;5040192;28;20441;-82
2021/07/20 12:35:29;;;;;;;15.50;8.80;;;;;;;;;;5023192;28;20554;-81
2021/07/20 12:38:02;;;;;;;9.37;8.37;;;;;;;;;;5040331;28;20464;-82
2021/07/20 12:40:29;;;;;;;8.87;8.07;;;;;;;;;;5034225;28;20431;-82
2021/07/20 12:42:55;;;;;;;10.07;8.40;;;;;;;;;;5043963;28;20417;-81
2021/07/20 12:45:21;;;;;;;9.43;8.60;;;;;;;;;;5030256;28;20429;-81
2021/07/20 12:47:49;;;;;;;8.90;7.80;;;;;;;;;;5045246;28;20447;-82
2021/07/20 12:50:17;;;;;;;9.00;8.20;;;;;;;;;;5043566;28;20463;-82
2021/07/20 12:52:44;;;;;;;9.70;8.70;;;;;;;;;;5044436;28;20519;-82
2021/07/20 12:55:15;;;;;;;9.07;7.10;;;;;;;;;;5046457;28;20439;-81
2021/07/20 12:57:45;;;;;;;8.47;7.67;;;;;;;;;;5042033;28;20487;-81
2021/07/20 13:00:12;;;;;;;8.50;7.10;;;;;;;;;;5033431;28;20417;-81
2021/07/20 13:02:38;;;;;;;10.37;7.60;;;;;;;;;;5034502;28;20464;-81
2021/07/20 13:05:05;;;;;;;8.50;7.27;;;;;;;;;;5033965;28;20451;-81
2021/07/20 13:07:34;;;;;;;8.50;7.47;;;;;;;;;;5046080;28;20444;-81
2021/07/20 13:10:00;;;;;;;8.07;7.30;;;;;;;;;;5045757;28;20472;-82
2021/07/20 13:12:26;;;;;;;8.20;7.47;;;;;;;;;;5039052;28;20431;-82
2021/07/20 13:14:53;;;;;;;8.60;7.57;;;;;;;;;;5044890;28;20439;-81
2021/07/20 13:17:20;;;;;;;7.67;7.00;;;;;;;;;;5045293;28;20609;-82
2021/07/20 13:19:47;;;;;;;9.40;7.47;;;;;;;;;;5040180;28;20468;-82
2021/07/20 13:22:24;;;;;;;10.33;8.07;;;;;;;;;;5043684;28;20489;-81
2021/07/20 13:24:50;;;;;;;8.47;7.67;;;;;;;;;;5027278;28;20417;-82
2021/07/20 13:27:18;;;;;;;9.67;8.67;;;;;;;;;;5032287;28;20501;-81
2021/07/20 13:29:45;;;;;;;11.43;8.07;;;;;;;;;;5040967;28;20436;-81
2021/07/20 13:32:11;;;;;;;8.40;7.60;;;;;;;;;;5039663;28;20452;-82
2021/07/20 13:34:37;;;;;;;10.77;9.67;;;;;;;;;;5033852;28;20811;-82
2021/07/20 13:37:03;;;;;;;9.00;7.50;;;;;;;;;;5043309;28;20478;-82
2021/07/20 13:39:30;;;;;;;9.17;8.27;;;;;;;;;;5046027;28;20421;-82
2021/07/20 13:41:56;;;;;;;9.33;7.77;;;;;;;;;;5045781;28;20877;-82
2021/07/20 13:44:23;;;;;;;9.20;8.30;;;;;;;;;;5044515;28;20476;-81
2021/07/20 13:46:51;;;;;;;9.53;8.23;;;;;;;;;;5042322;28;20494;-82
2021/07/20 13:49:19;;;;;;;8.33;7.50;;;;;;;;;;5028101;28;20459;-81
2021/07/20 13:51:47;;;;;;;9.97;7.00;;;;;;;;;;5026528;28;20451;-81
2021/07/20 13:54:13;;;;;;;9.73;7.40;;;;;;;;;;5045662;28;20415;-81
2021/07/20 13:56:39;;;;;;;8.77;7.87;;;;;;;;;;5043250;28;20506;-81
2021/07/20 13:59:07;;;;;;;8.63;7.83;;;;;;;;;;5045803;28;20436;-81
2021/07/20 14:01:43;;;;;;;9.60;6.87;;;;;;;;;;5044507;28;20469;-81
2021/07/20 14:04:10;;;;;;;9.30;7.73;;;;;;;;;;5028408;28;20431;-82
2021/07/20 14:06:38;;;;;;;13.30;7.80;;;;;;;;;;5055304;28;20431;-82
2021/07/20 14:09:07;;;;;;;11.27;6.73;;;;;;;;;;5033584;28;20449;-82
2021/07/20 14:11:34;;;;;;;8.00;7.20;;;;;;;;;;5039992;28;20436;-81
2021/07/20 14:14:01;;;;;;;7.50;6.40;;;;;;;;;;5045579;28;20435;-82
2021/07/20 14:16:28;;;;;;;7.40;6.60;;;;;;;;;;5043598;28;20513;-81
2021/07/20 14:18:56;;;;;;;8.83;6.83;;;;;;;;;;5042480;28;20525;-81
2021/07/20 14:21:23;;;;;;;8.30;6.40;;;;;;;;;;5029704;28;20492;-81
2021/07/20 14:23:52;;;;;;;9.13;7.10;;;;;;;;;;5043534;28;20597;-81
2021/07/20 14:26:18;;;;;;;9.80;6.77;;;;;;;;;;5044932;28;20432;-81
2021/07/20 14:28:44;;;;;;;8.57;6.17;;;;;;;;;;5044309;28;20538;-82
2021/07/20 14:31:10;;;;;;;8.70;6.53;;;;;;;;;;5042236;28;20501;-81
2021/07/20 14:33:37;;;;;;;7.80;7.00;;;;;;;;;;5039802;28;20407;-81
2021/07/20 14:36:04;;;;;;;8.83;6.37;;;;;;;;;;5042714;28;20436;-82
2021/07/20 14:38:38;;;;;;;6.53;5.93;;;;;;;;;;5044004;28;20497;-82
2021/07/20 14:41:09;;;;;;;8.80;5.50;;;;;;;;;;5042610;28;20441;-81
2021/07/20 14:43:37;;;;;;;7.47;5.47;;;;;;;;;;5042543;28;20435;-81
2021/07/20 14:46:11;;;;;;;10.57;6.57;;;;;;;;;;5042000;28;20443;-81